createdAt,value
2016-02-18T00:00:53.139Z,0
2016-02-18T00:01:53.203Z,0
2016-02-18T00:02:53.238Z,0
2016-02-18T00:03:53.302Z,0
2016-02-18T00:04:53.185Z,0
2016-02-18T00:05:53.390Z,0
2016-02-18T00:06:53.456Z,0
2016-02-18T00:07:53.505Z,0
2016-02-18T00:08:53.539Z,0
2016-02-18T00:09:53.604Z,0
2016-02-18T00:10:53.638Z,0
2016-02-18T00:11:53.688Z,0
2016-02-18T00:12:53.753Z,0
2016-02-18T00:13:53.786Z,0
2016-02-18T00:14:53.853Z,0
2016-02-18T00:15:53.886Z,0
2016-02-18T00:16:53.936Z,0
2016-02-18T00:17:54.001Z,0
2016-02-18T00:18:54.034Z,0
2016-02-18T00:19:54.083Z,0
2016-02-18T00:20:54.134Z,0
2016-02-18T00:21:54.167Z,0
2016-02-18T00:22:54.233Z,0
2016-02-18T00:23:54.297Z,0
2016-02-18T00:24:54.347Z,0
2016-02-18T00:25:54.382Z,0
2016-02-18T00:26:54.446Z,0
2016-02-18T00:27:54.465Z,0
2016-02-18T00:28:54.530Z,0
2016-02-18T00:29:54.579Z,0
2016-02-18T00:30:54.614Z,0
2016-02-18T00:31:54.710Z,0
2016-02-18T00:32:54.744Z,0
2016-02-18T00:33:54.778Z,0
2016-02-18T00:34:54.843Z,0
2016-02-18T00:35:54.877Z,0
2016-02-18T00:36:54.931Z,0
2016-02-18T00:37:54.965Z,0
2016-02-18T00:38:55.015Z,0
2016-02-18T00:39:55.080Z,0
2016-02-18T00:40:55.114Z,0
2016-02-18T00:41:55.211Z,0
2016-02-18T00:42:55.213Z,0
2016-02-18T00:43:55.264Z,0
2016-02-18T00:44:55.328Z,0
2016-02-18T00:45:55.362Z,0
2016-02-18T00:46:55.411Z,0
2016-02-18T00:47:55.477Z,0
2016-02-18T00:48:55.511Z,0
2016-02-18T00:49:55.575Z,0
2016-02-18T00:50:55.657Z,0
2016-02-18T00:51:55.690Z,0
2016-02-18T00:52:55.724Z,0
2016-02-18T00:53:55.806Z,0
2016-02-18T00:54:55.824Z,0
2016-02-18T00:55:55.874Z,0
2016-02-18T00:56:55.907Z,0
2016-02-18T00:57:55.957Z,0
2016-02-18T00:58:56.021Z,0
2016-02-18T00:59:56.040Z,0
2016-02-18T01:00:56.105Z,0
2016-02-18T01:01:56.171Z,0
2016-02-18T01:02:56.204Z,0
2016-02-18T01:03:56.255Z,0
2016-02-18T01:04:56.320Z,0
2016-02-18T01:05:56.354Z,0
2016-02-18T01:06:56.392Z,0
2016-02-18T01:07:56.457Z,0
2016-02-18T01:08:56.507Z,0
2016-02-18T01:09:56.541Z,0
2016-02-18T01:10:56.606Z,0
2016-02-18T01:11:56.656Z,0
2016-02-18T01:12:56.705Z,0
2016-02-18T01:13:56.770Z,0
2016-02-18T01:14:56.805Z,0
2016-02-18T01:15:56.853Z,0
2016-02-18T01:16:56.888Z,0
2016-02-18T01:17:56.938Z,0
2016-02-18T01:18:57.019Z,0
2016-02-18T01:19:56.880Z,0
2016-02-18T01:20:57.117Z,0
2016-02-18T01:21:57.152Z,0
2016-02-18T01:22:57.185Z,0
2016-02-18T01:23:57.250Z,0
2016-02-18T01:24:57.300Z,0
2016-02-18T01:25:57.349Z,0
2016-02-18T01:26:57.398Z,0
2016-02-18T01:27:57.448Z,0
2016-02-18T01:28:57.498Z,0
2016-02-18T01:29:57.563Z,0
2016-02-18T01:30:57.598Z,0
2016-02-18T01:31:57.646Z,0
2016-02-18T01:32:57.696Z,0
2016-02-18T01:33:57.761Z,0
2016-02-18T01:34:57.796Z,0
2016-02-18T01:35:57.829Z,0
2016-02-18T01:36:57.878Z,0
2016-02-18T01:37:57.944Z,0
2016-02-18T01:38:57.978Z,0
2016-02-18T01:39:58.043Z,0
2016-02-18T01:40:58.093Z,0
2016-02-18T01:41:58.127Z,0
2016-02-18T01:42:58.192Z,0
2016-02-18T01:43:58.257Z,0
2016-02-18T01:44:58.276Z,0
2016-02-18T01:45:58.325Z,0
2016-02-18T01:46:58.374Z,0
2016-02-18T01:47:58.424Z,0
2016-02-18T01:48:58.474Z,0
2016-02-18T01:49:58.524Z,0
2016-02-18T01:50:58.589Z,0
2016-02-18T01:51:58.654Z,0
2016-02-18T01:52:58.672Z,0
2016-02-18T01:53:58.737Z,0
2016-02-18T01:54:58.772Z,0
2016-02-18T01:55:58.805Z,0
2016-02-18T01:56:58.885Z,0
2016-02-18T01:57:58.920Z,0
2016-02-18T01:58:58.985Z,0
2016-02-18T01:59:59.034Z,0
2016-02-18T02:00:59.068Z,0
2016-02-18T02:01:59.132Z,0
2016-02-18T02:02:59.169Z,0
2016-02-18T02:03:59.190Z,0
2016-02-18T02:04:59.241Z,0
2016-02-18T02:05:59.264Z,0
2016-02-18T02:06:59.286Z,0
2016-02-18T02:07:59.363Z,0
2016-02-18T02:08:59.392Z,0
2016-02-18T02:09:59.436Z,0
2016-02-18T02:10:59.498Z,0
2016-02-18T02:11:59.527Z,0
2016-02-18T02:12:59.559Z,0
2016-02-18T02:13:59.639Z,0
2016-02-18T02:14:59.671Z,0
2016-02-18T02:15:59.719Z,0
2016-02-18T02:16:59.768Z,0
2016-02-18T02:17:59.816Z,0
2016-02-18T02:18:59.866Z,0
2016-02-18T02:19:59.898Z,0
2016-02-18T02:20:59.978Z,0
2016-02-18T02:21:59.996Z,0
2016-02-18T02:23:00.077Z,0
2016-02-18T02:24:00.096Z,0
2016-02-18T02:25:00.160Z,0
2016-02-18T02:26:00.226Z,0
2016-02-18T02:27:00.244Z,0
2016-02-18T02:28:00.293Z,0
2016-02-18T02:29:00.374Z,0
2016-02-18T02:30:00.409Z,0
2016-02-18T02:31:00.457Z,0
2016-02-18T02:32:00.492Z,0
2016-02-18T02:33:00.542Z,0
2016-02-18T02:34:00.606Z,0
2016-02-18T02:35:00.641Z,0
2016-02-18T02:36:00.706Z,0
2016-02-18T02:37:00.740Z,0
2016-02-18T02:38:00.789Z,0
2016-02-18T02:39:00.839Z,0
2016-02-18T02:40:00.920Z,0
2016-02-18T02:41:00.939Z,0
2016-02-18T02:42:00.972Z,0
2016-02-18T02:43:01.131Z,0
2016-02-18T02:44:01.086Z,0
2016-02-18T02:45:01.136Z,0
2016-02-18T02:46:01.217Z,0
2016-02-18T02:47:01.235Z,0
2016-02-18T02:48:01.300Z,0
2016-02-18T02:49:01.350Z,0
2016-02-18T02:50:01.369Z,0
2016-02-18T02:51:01.465Z,0
2016-02-18T02:52:01.499Z,0
2016-02-18T02:53:01.516Z,0
2016-02-18T02:54:01.582Z,0
2016-02-18T02:55:01.663Z,0
2016-02-18T02:56:01.666Z,0
2016-02-18T02:57:01.732Z,0
2016-02-18T02:58:01.796Z,0
2016-02-18T02:59:01.815Z,0
2016-02-18T03:00:01.880Z,0
2016-02-18T03:01:01.946Z,0
2016-02-18T03:02:01.979Z,0
2016-02-18T03:03:02.044Z,0
2016-02-18T03:04:02.094Z,0
2016-02-18T03:05:02.112Z,0
2016-02-18T03:06:02.224Z,0
2016-02-18T03:07:02.196Z,0
2016-02-18T03:08:02.262Z,0
2016-02-18T03:09:02.342Z,0
2016-02-18T03:10:02.376Z,0
2016-02-18T03:11:02.426Z,0
2016-02-18T03:12:02.490Z,0
2016-02-18T03:13:02.508Z,0
2016-02-18T03:14:02.558Z,0
2016-02-18T03:15:02.639Z,0
2016-02-18T03:16:02.658Z,0
2016-02-18T03:17:02.722Z,0
2016-02-18T03:18:02.788Z,0
2016-02-18T03:19:02.805Z,0
2016-02-18T03:20:02.871Z,0
2016-02-18T03:21:02.936Z,0
2016-02-18T03:22:02.955Z,0
2016-02-18T03:23:03.036Z,0
2016-02-18T03:24:03.069Z,0
2016-02-18T03:25:03.103Z,0
2016-02-18T03:26:03.185Z,0
2016-02-18T03:27:03.046Z,0
2016-02-18T03:28:03.268Z,0
2016-02-18T03:29:03.349Z,0
2016-02-18T03:30:03.367Z,0
2016-02-18T03:31:03.417Z,0
2016-02-18T03:32:03.451Z,0
2016-02-18T03:33:03.500Z,0
2016-02-18T03:34:03.582Z,0
2016-02-18T03:35:03.615Z,0
2016-02-18T03:36:03.649Z,0
2016-02-18T03:37:03.715Z,0
2016-02-18T03:38:03.748Z,0
2016-02-18T03:39:03.798Z,0
2016-02-18T03:40:03.848Z,0
2016-02-18T03:41:03.897Z,0
2016-02-18T03:42:03.978Z,0
2016-02-18T03:43:03.996Z,0
2016-02-18T03:44:04.045Z,0
2016-02-18T03:45:04.111Z,0
2016-02-18T03:46:04.160Z,0
2016-02-18T03:47:04.195Z,0
2016-02-18T03:48:04.259Z,0
2016-02-18T03:49:04.309Z,0
2016-02-18T03:50:04.342Z,0
2016-02-18T03:51:04.439Z,0
2016-02-18T03:52:04.441Z,0
2016-02-18T03:53:04.508Z,0
2016-02-18T03:54:04.541Z,0
2016-02-18T03:55:04.591Z,0
2016-02-18T03:56:04.656Z,0
2016-02-18T03:57:04.689Z,0
2016-02-18T03:58:04.739Z,0
2016-02-18T03:59:04.804Z,0
2016-02-18T04:00:04.822Z,0
2016-02-18T04:01:04.904Z,0
2016-02-18T04:02:04.937Z,0
2016-02-18T04:03:04.971Z,0
2016-02-18T04:04:05.053Z,0
2016-02-18T04:05:05.086Z,0
2016-02-18T04:06:05.136Z,0
2016-02-18T04:07:05.202Z,0
2016-02-18T04:08:05.220Z,0
2016-02-18T04:09:05.285Z,0
2016-02-18T04:10:05.350Z,0
2016-02-18T04:11:05.369Z,0
2016-02-18T04:12:05.419Z,0
2016-02-18T04:13:05.499Z,0
2016-02-18T04:14:05.565Z,0
2016-02-18T04:15:05.567Z,0
2016-02-18T04:16:05.648Z,0
2016-02-18T04:17:05.665Z,0
2016-02-18T04:18:05.732Z,0
2016-02-18T04:19:05.782Z,0
2016-02-18T04:20:05.815Z,0
2016-02-18T04:21:05.896Z,0
2016-02-18T04:22:05.945Z,0
2016-02-18T04:23:05.964Z,0
2016-02-18T04:24:06.028Z,0
2016-02-18T04:25:06.062Z,0
2016-02-18T04:26:06.112Z,0
2016-02-18T04:27:06.178Z,0
2016-02-18T04:28:06.212Z,0
2016-02-18T04:29:06.261Z,0
2016-02-18T04:30:06.311Z,0
2016-02-18T04:31:06.344Z,0
2016-02-18T04:32:06.425Z,0
2016-02-18T04:33:06.458Z,0
2016-02-18T04:34:06.494Z,0
2016-02-18T04:35:06.575Z,0
2016-02-18T04:36:06.608Z,0
2016-02-18T04:37:06.658Z,0
2016-02-18T04:38:06.722Z,0
2016-02-18T04:39:06.757Z,0
2016-02-18T04:40:06.805Z,0
2016-02-18T04:41:06.855Z,0
2016-02-18T04:42:06.906Z,0
2016-02-18T04:43:06.970Z,0
2016-02-18T04:44:07.005Z,0
2016-02-18T04:45:07.055Z,0
2016-02-18T04:46:07.104Z,0
2016-02-18T04:47:07.153Z,0
2016-02-18T04:48:07.202Z,0
2016-02-18T04:49:07.237Z,0
2016-02-18T04:50:07.301Z,0
2016-02-18T04:51:07.398Z,0
2016-02-18T04:52:07.401Z,0
2016-02-18T04:53:07.451Z,0
2016-02-18T04:54:07.516Z,0
2016-02-18T04:55:07.534Z,0
2016-02-18T04:56:07.599Z,0
2016-02-18T04:57:07.648Z,0
2016-02-18T04:58:07.698Z,0
2016-02-18T04:59:07.747Z,0
2016-02-18T05:00:07.797Z,0
2016-02-18T05:01:07.848Z,0
2016-02-18T05:02:07.912Z,0
2016-02-18T05:03:07.937Z,0
2016-02-18T05:04:07.886Z,0
2016-02-18T05:05:17.000Z,0
2016-02-18T05:06:10.098Z,0
2016-02-18T05:07:08.147Z,0
2016-02-18T05:08:08.180Z,0
2016-02-18T05:09:08.230Z,0
2016-02-18T05:10:08.328Z,0
2016-02-18T05:11:08.314Z,0
2016-02-18T05:12:08.411Z,0
2016-02-18T05:13:08.430Z,0
2016-02-18T05:14:08.479Z,0
2016-02-18T05:15:08.533Z,0
2016-02-18T05:16:08.598Z,0
2016-02-18T05:17:08.632Z,0
2016-02-18T05:18:08.681Z,0
2016-02-18T05:19:08.732Z,0
2016-02-18T05:20:08.766Z,0
2016-02-18T05:21:08.831Z,0
2016-02-18T05:22:08.865Z,0
2016-02-18T05:23:08.945Z,0
2016-02-18T05:24:08.964Z,0
2016-02-18T05:25:09.012Z,0
2016-02-18T05:26:09.062Z,0
2016-02-18T05:27:09.128Z,0
2016-02-18T05:28:09.178Z,0
2016-02-18T05:29:09.212Z,0
2016-02-18T05:30:09.276Z,0
2016-02-18T05:31:09.326Z,0
2016-02-18T05:32:09.360Z,0
2016-02-18T05:33:09.409Z,0
2016-02-18T05:34:09.474Z,0
2016-02-18T05:35:09.493Z,0
2016-02-18T05:36:09.559Z,0
2016-02-18T05:37:09.624Z,0
2016-02-18T05:38:09.658Z,0
2016-02-18T05:39:09.707Z,0
2016-02-18T05:40:09.772Z,0
2016-02-18T05:41:09.791Z,0
2016-02-18T05:42:09.855Z,0
2016-02-18T05:43:09.936Z,0
2016-02-18T05:44:09.938Z,0
2016-02-18T05:45:09.988Z,0
2016-02-18T05:46:10.070Z,0
2016-02-18T05:47:10.088Z,0
2016-02-18T05:48:10.169Z,0
2016-02-18T05:49:10.187Z,0
2016-02-18T05:50:10.252Z,0
2016-02-18T05:51:10.317Z,0
2016-02-18T05:52:10.320Z,0
2016-02-18T05:53:10.401Z,0
2016-02-18T05:54:10.451Z,0
2016-02-18T05:55:10.485Z,0
2016-02-18T05:56:10.565Z,0
2016-02-18T05:57:10.599Z,0
2016-02-18T05:58:10.633Z,0
2016-02-18T05:59:10.714Z,0
2016-02-18T06:00:10.732Z,0
2016-02-18T06:01:10.797Z,0
2016-02-18T06:02:10.863Z,0
2016-02-18T06:03:10.865Z,0
2016-02-18T06:04:10.915Z,0
2016-02-18T06:05:10.854Z,0
2016-02-18T06:06:11.034Z,0
2016-02-18T06:07:11.068Z,0
2016-02-18T06:08:11.148Z,0
2016-02-18T06:09:11.182Z,0
2016-02-18T06:10:11.231Z,0
2016-02-18T06:11:11.312Z,0
2016-02-18T06:12:11.332Z,0
2016-02-18T06:13:11.381Z,0
2016-02-18T06:14:11.415Z,0
2016-02-18T06:15:11.464Z,0
2016-02-18T06:16:11.561Z,0
2016-02-18T06:17:11.578Z,0
2016-02-18T06:18:11.612Z,0
2016-02-18T06:19:11.694Z,0
2016-02-18T06:20:11.728Z,0
2016-02-18T06:21:11.762Z,0
2016-02-18T06:22:11.842Z,0
2016-02-18T06:23:11.876Z,0
2016-02-18T06:24:11.925Z,0
2016-02-18T06:25:11.991Z,0
2016-02-18T06:26:12.008Z,0
2016-02-18T06:27:12.074Z,0
2016-02-18T06:28:12.140Z,0
2016-02-18T06:29:12.158Z,0
2016-02-18T06:30:12.224Z,0
2016-02-18T06:31:12.272Z,0
2016-02-18T06:32:12.307Z,0
2016-02-18T06:33:12.340Z,0
2016-02-18T06:34:12.281Z,0
2016-02-18T06:35:12.455Z,0
2016-02-18T06:36:12.490Z,0
2016-02-18T06:37:12.571Z,0
2016-02-18T06:38:12.605Z,0
2016-02-18T06:39:12.654Z,0
2016-02-18T06:40:12.704Z,0
2016-02-18T06:41:12.754Z,0
2016-02-18T06:42:12.818Z,0
2016-02-18T06:43:12.852Z,0
2016-02-18T06:44:12.886Z,0
2016-02-18T06:45:12.951Z,0
2016-02-18T06:46:13.016Z,0
2016-02-18T06:47:13.035Z,0
2016-02-18T06:48:13.100Z,0
2016-02-18T06:49:13.150Z,0
2016-02-18T06:50:13.183Z,0
2016-02-18T06:51:13.264Z,0
2016-02-18T06:52:13.283Z,0
2016-02-18T06:53:13.347Z,0
2016-02-18T06:54:13.397Z,0
2016-02-18T06:55:13.431Z,0
2016-02-18T06:56:13.512Z,0
2016-02-18T06:57:13.577Z,0
2016-02-18T06:58:13.580Z,0
2016-02-18T06:59:13.645Z,0
2016-02-18T07:00:13.710Z,0
2016-02-18T07:01:13.728Z,0
2016-02-18T07:02:13.777Z,0
2016-02-18T07:03:13.859Z,0
2016-02-18T07:04:13.877Z,0
2016-02-18T07:05:13.927Z,0
2016-02-18T07:06:14.007Z,0
2016-02-18T07:07:14.026Z,0
2016-02-18T07:08:14.091Z,0
2016-02-18T07:09:14.124Z,0
2016-02-18T07:10:14.174Z,0
2016-02-18T07:11:14.240Z,0
2016-02-18T07:12:14.274Z,0
2016-02-18T07:13:14.307Z,0
2016-02-18T07:14:14.404Z,0
2016-02-18T07:15:14.423Z,0
2016-02-18T07:16:14.472Z,0
2016-02-18T07:17:14.553Z,0
2016-02-18T07:18:14.570Z,0
2016-02-18T07:19:14.620Z,0
2016-02-18T07:20:14.701Z,0
2016-02-18T07:21:14.703Z,0
2016-02-18T07:22:14.754Z,0
2016-02-18T07:23:14.834Z,0
2016-02-18T07:24:14.900Z,0
2016-02-18T07:25:14.903Z,0
2016-02-18T07:26:14.967Z,0
2016-02-18T07:27:15.017Z,0
2016-02-18T07:28:15.050Z,0
2016-02-18T07:29:15.116Z,0
2016-02-18T07:30:15.150Z,0
2016-02-18T07:31:15.199Z,0
2016-02-18T07:32:15.265Z,0
2016-02-18T07:33:15.314Z,0
2016-02-18T07:34:15.363Z,0
2016-02-18T07:35:15.429Z,0
2016-02-18T07:36:15.432Z,0
2016-02-18T07:37:15.496Z,0
2016-02-18T07:38:15.563Z,0
2016-02-18T07:39:15.596Z,0
2016-02-18T07:40:15.646Z,0
2016-02-18T07:41:15.727Z,0
2016-02-18T07:42:15.729Z,0
2016-02-18T07:43:15.810Z,0
2016-02-18T07:44:15.860Z,0
2016-02-18T07:45:15.878Z,0
2016-02-18T07:46:15.943Z,0
2016-02-18T07:47:16.008Z,0
2016-02-18T07:48:16.026Z,4
2016-02-18T07:49:16.093Z,4
2016-02-18T07:50:16.189Z,4
2016-02-18T07:51:16.176Z,4
2016-02-18T07:52:16.256Z,4
2016-02-18T07:53:16.290Z,4
2016-02-18T07:54:16.324Z,4
2016-02-18T07:55:16.389Z,4
2016-02-18T07:56:16.469Z,0
2016-02-18T07:57:16.473Z,0
2016-02-18T07:58:16.539Z,0
2016-02-18T07:59:16.572Z,4
2016-02-18T08:00:16.637Z,4
2016-02-18T08:01:16.702Z,4
2016-02-18T08:02:16.705Z,4
2016-02-18T08:03:16.785Z,4
2016-02-18T08:04:16.819Z,4
2016-02-18T08:05:16.870Z,4
2016-02-18T08:06:16.934Z,8
2016-02-18T08:07:16.968Z,4
2016-02-18T08:08:17.003Z,4
2016-02-18T08:09:17.068Z,4
2016-02-18T08:10:17.118Z,4
2016-02-18T08:11:17.010Z,8
2016-02-18T08:12:17.201Z,8
2016-02-18T08:13:17.250Z,8
2016-02-18T08:14:17.315Z,8
2016-02-18T08:15:17.365Z,8
2016-02-18T08:16:17.399Z,8
2016-02-18T08:17:17.448Z,4
2016-02-18T08:18:17.529Z,4
2016-02-18T08:19:17.548Z,8
2016-02-18T08:20:17.582Z,8
2016-02-18T08:21:17.631Z,4
2016-02-18T08:22:16.946Z,8
2016-02-18T08:23:17.731Z,8
2016-02-18T08:24:17.780Z,4
2016-02-18T08:25:17.828Z,8
2016-02-18T08:26:17.894Z,4
2016-02-18T08:27:17.913Z,8
2016-02-18T08:28:17.962Z,8
2016-02-18T08:29:18.027Z,4
2016-02-18T08:30:18.062Z,8
2016-02-18T08:31:18.095Z,8
2016-02-18T08:32:18.161Z,8
2016-02-18T08:33:18.242Z,8
2016-02-18T08:34:18.260Z,8
2016-02-18T08:35:18.310Z,4
2016-02-18T08:36:18.344Z,8
2016-02-18T08:37:18.424Z,12
2016-02-18T08:38:18.443Z,12
2016-02-18T08:39:18.491Z,12
2016-02-18T08:40:18.541Z,8
2016-02-18T08:41:18.591Z,4
2016-02-18T08:42:18.624Z,20
2016-02-18T08:43:18.690Z,20
2016-02-18T08:44:18.740Z,16
2016-02-18T08:45:18.774Z,16
2016-02-18T08:46:18.824Z,20
2016-02-18T08:47:18.873Z,20
2016-02-18T08:48:18.938Z,16
2016-02-18T08:49:18.972Z,12
2016-02-18T08:50:19.006Z,16
2016-02-18T08:51:19.071Z,20
2016-02-18T08:52:18.980Z,20
2016-02-18T08:53:19.154Z,20
2016-02-18T08:54:19.203Z,20
2016-02-18T08:55:19.269Z,20
2016-02-18T08:56:19.304Z,20
2016-02-18T08:57:19.369Z,20
2016-02-18T08:58:19.418Z,20
2016-02-18T08:59:19.453Z,20
2016-02-18T09:00:19.486Z,20
2016-02-18T09:01:19.551Z,20
2016-02-18T09:02:19.601Z,20
2016-02-18T09:03:19.635Z,20
2016-02-18T09:04:19.684Z,20
2016-02-18T09:05:19.733Z,20
2016-02-18T09:06:19.784Z,20
2016-02-18T09:07:19.833Z,24
2016-02-18T09:08:19.899Z,24
2016-02-18T09:09:19.933Z,24
2016-02-18T09:10:19.982Z,24
2016-02-18T09:11:20.031Z,28
2016-02-18T09:12:20.065Z,28
2016-02-18T09:13:20.115Z,24
2016-02-18T09:14:20.180Z,24
2016-02-18T09:15:20.229Z,28
2016-02-18T09:16:20.263Z,28
2016-02-18T09:17:20.298Z,28
2016-02-18T09:18:20.379Z,28
2016-02-18T09:19:20.428Z,32
2016-02-18T09:20:20.446Z,28
2016-02-18T09:21:19.762Z,28
2016-02-18T09:22:20.561Z,32
2016-02-18T09:23:20.610Z,32
2016-02-18T09:24:20.645Z,32
2016-02-18T09:25:20.694Z,32
2016-02-18T09:26:20.759Z,36
2016-02-18T09:27:20.808Z,36
2016-02-18T09:28:20.828Z,36
2016-02-18T09:29:20.892Z,36
2016-02-18T09:30:20.786Z,36
2016-02-18T09:31:21.039Z,36
2016-02-18T09:32:21.025Z,36
2016-02-18T09:33:21.091Z,40
2016-02-18T09:34:21.125Z,40
2016-02-18T09:35:21.189Z,40
2016-02-18T09:36:21.239Z,40
2016-02-18T09:37:21.304Z,36
2016-02-18T09:38:21.322Z,36
2016-02-18T09:39:21.372Z,40
2016-02-18T09:40:21.438Z,40
2016-02-18T09:41:21.488Z,36
2016-02-18T09:42:21.521Z,32
2016-02-18T09:43:21.555Z,36
2016-02-18T09:44:21.621Z,36
2016-02-18T09:45:21.669Z,40
2016-02-18T09:46:21.719Z,44
2016-02-18T09:47:21.768Z,44
2016-02-18T09:48:21.818Z,48
2016-02-18T09:49:21.851Z,52
2016-02-18T09:50:21.918Z,48
2016-02-18T09:51:21.952Z,48
2016-02-18T09:52:22.017Z,44
2016-02-18T09:53:22.051Z,44
2016-02-18T09:54:22.085Z,48
2016-02-18T09:55:22.165Z,48
2016-02-18T09:56:22.199Z,52
2016-02-18T09:57:22.248Z,48
2016-02-18T09:58:22.283Z,48
2016-02-18T09:59:22.347Z,44
2016-02-18T10:00:22.444Z,52
2016-02-18T10:01:22.448Z,56
2016-02-18T10:02:22.481Z,56
2016-02-18T10:03:22.531Z,60
2016-02-18T10:04:22.580Z,60
2016-02-18T10:05:22.630Z,64
2016-02-18T10:06:22.679Z,64
2016-02-18T10:07:22.728Z,68
2016-02-18T10:08:22.763Z,100
2016-02-18T10:09:22.827Z,72
2016-02-18T10:10:22.877Z,72
2016-02-18T10:11:22.911Z,80
2016-02-18T10:12:22.977Z,88
2016-02-18T10:13:23.027Z,84
2016-02-18T10:14:23.060Z,104
2016-02-18T10:15:23.110Z,88
2016-02-18T10:16:23.159Z,88
2016-02-18T10:17:23.224Z,92
2016-02-18T10:18:23.258Z,92
2016-02-18T10:19:23.293Z,92
2016-02-18T10:20:23.405Z,104
2016-02-18T10:21:23.407Z,108
2016-02-18T10:22:23.440Z,116
2016-02-18T10:23:23.491Z,104
2016-02-18T10:24:23.571Z,124
2016-02-18T10:25:23.606Z,104
2016-02-18T10:26:23.639Z,144
2016-02-18T10:27:23.704Z,156
2016-02-18T10:28:23.754Z,168
2016-02-18T10:29:23.803Z,164
2016-02-18T10:30:23.837Z,152
2016-02-18T10:31:23.887Z,156
2016-02-18T10:32:23.937Z,156
2016-02-18T10:33:23.986Z,160
2016-02-18T10:34:24.036Z,156
2016-02-18T10:35:24.086Z,144
2016-02-18T10:36:24.136Z,156
2016-02-18T10:37:24.184Z,152
2016-02-18T10:38:24.062Z,152
2016-02-18T10:39:24.283Z,152
2016-02-18T10:40:24.317Z,128
2016-02-18T10:41:24.382Z,148
2016-02-18T10:42:24.433Z,148
2016-02-18T10:43:24.294Z,120
2016-02-18T10:44:24.516Z,124
2016-02-18T10:45:24.581Z,132
2016-02-18T10:46:24.630Z,132
2016-02-18T10:47:24.665Z,132
2016-02-18T10:48:24.713Z,128
2016-02-18T10:49:24.763Z,132
2016-02-18T10:50:24.798Z,120
2016-02-18T10:51:24.878Z,124
2016-02-18T10:52:24.928Z,104
2016-02-18T10:53:24.806Z,100
2016-02-18T10:54:24.996Z,88
2016-02-18T10:55:25.046Z,112
2016-02-18T10:56:25.110Z,96
2016-02-18T10:57:25.160Z,124
2016-02-18T10:58:25.194Z,128
2016-02-18T10:59:25.243Z,128
2016-02-18T11:00:25.308Z,124
2016-02-18T11:01:25.343Z,104
2016-02-18T11:02:25.409Z,124
2016-02-18T11:03:25.442Z,104
2016-02-18T11:04:25.476Z,116
2016-02-18T11:05:25.542Z,116
2016-02-18T11:06:25.606Z,112
2016-02-18T11:07:25.515Z,112
2016-02-18T11:08:25.680Z,116
2016-02-18T11:09:25.734Z,116
2016-02-18T11:10:25.755Z,112
2016-02-18T11:11:25.793Z,112
2016-02-18T11:12:25.832Z,108
2016-02-18T11:13:25.875Z,112
2016-02-18T11:14:25.921Z,112
2016-02-18T11:15:25.950Z,108
2016-02-18T11:16:25.995Z,108
2016-02-18T11:17:26.056Z,108
2016-02-18T11:18:26.088Z,108
2016-02-18T11:19:26.120Z,104
2016-02-18T11:20:26.183Z,104
2016-02-18T11:21:26.232Z,104
2016-02-18T11:22:26.280Z,100
2016-02-18T11:23:26.329Z,96
2016-02-18T11:24:26.361Z,96
2016-02-18T11:25:26.441Z,100
2016-02-18T11:26:26.475Z,104
2016-02-18T11:27:26.508Z,104
2016-02-18T11:28:26.573Z,104
2016-02-18T11:29:26.606Z,104
2016-02-18T11:30:26.671Z,108
2016-02-18T11:31:26.705Z,104
2016-02-18T11:32:26.770Z,104
2016-02-18T11:33:26.820Z,108
2016-02-18T11:34:26.884Z,108
2016-02-18T11:35:26.934Z,108
2016-02-18T11:36:26.952Z,104
2016-02-18T11:37:27.017Z,104
2016-02-18T11:38:27.051Z,104
2016-02-18T11:39:27.117Z,100
2016-02-18T11:40:27.167Z,104
2016-02-18T11:41:27.200Z,104
2016-02-18T11:42:27.250Z,104
2016-02-18T11:43:27.314Z,104
2016-02-18T11:44:27.380Z,104
2016-02-18T11:45:27.414Z,100
2016-02-18T11:46:27.432Z,100
2016-02-18T11:47:27.498Z,88
2016-02-18T11:48:27.547Z,76
2016-02-18T11:49:27.596Z,92
2016-02-18T11:50:27.647Z,92
2016-02-18T11:51:27.696Z,100
2016-02-18T11:52:27.746Z,96
2016-02-18T11:53:27.810Z,96
2016-02-18T11:54:27.860Z,92
2016-02-18T11:55:27.941Z,92
2016-02-18T11:56:27.927Z,100
2016-02-18T11:57:28.055Z,96
2016-02-18T11:58:28.058Z,96
2016-02-18T11:59:28.093Z,100
2016-02-18T12:00:28.142Z,92
2016-02-18T12:01:28.238Z,92
2016-02-18T12:02:28.240Z,96
2016-02-18T12:03:28.275Z,92
2016-02-18T12:04:28.371Z,96
2016-02-18T12:05:28.389Z,92
2016-02-18T12:06:28.424Z,92
2016-02-18T12:07:28.489Z,88
2016-02-18T12:08:28.523Z,92
2016-02-18T12:09:28.587Z,88
2016-02-18T12:10:28.622Z,92
2016-02-18T12:11:28.672Z,84
2016-02-18T12:12:28.737Z,88
2016-02-18T12:13:28.770Z,64
2016-02-18T12:14:28.820Z,80
2016-02-18T12:15:28.869Z,64
2016-02-18T12:16:28.919Z,64
2016-02-18T12:17:28.969Z,76
2016-02-18T12:18:29.034Z,84
2016-02-18T12:19:29.068Z,88
2016-02-18T12:20:29.133Z,80
2016-02-18T12:21:29.183Z,72
2016-02-18T12:22:29.201Z,76
2016-02-18T12:23:29.266Z,76
2016-02-18T12:24:29.299Z,60
2016-02-18T12:25:29.381Z,80
2016-02-18T12:26:29.430Z,80
2016-02-18T12:27:29.449Z,80
2016-02-18T12:28:29.499Z,68
2016-02-18T12:29:29.548Z,76
2016-02-18T12:30:29.629Z,60
2016-02-18T12:31:29.631Z,56
2016-02-18T12:32:29.712Z,48
2016-02-18T12:33:29.746Z,40
2016-02-18T12:34:29.827Z,40
2016-02-18T12:35:29.877Z,44
2016-02-18T12:36:29.926Z,40
2016-02-18T12:37:29.945Z,40
2016-02-18T12:38:30.009Z,40
2016-02-18T12:39:30.028Z,40
2016-02-18T12:40:30.093Z,40
2016-02-18T12:41:30.159Z,36
2016-02-18T12:42:29.864Z,36
2016-02-18T12:43:30.241Z,56
2016-02-18T12:44:30.307Z,56
2016-02-18T12:45:30.326Z,52
2016-02-18T12:46:30.406Z,52
2016-02-18T12:47:30.456Z,56
2016-02-18T12:48:30.474Z,44
2016-02-18T12:49:30.555Z,48
2016-02-18T12:50:30.572Z,48
2016-02-18T12:51:30.638Z,48
2016-02-18T12:52:30.673Z,48
2016-02-18T12:53:30.722Z,52
2016-02-18T12:54:30.803Z,48
2016-02-18T12:55:30.821Z,44
2016-02-18T12:56:30.886Z,44
2016-02-18T12:57:30.935Z,44
2016-02-18T12:58:30.969Z,44
2016-02-18T12:59:31.018Z,44
2016-02-18T13:00:31.069Z,48
2016-02-18T13:01:31.182Z,44
2016-02-18T13:02:31.184Z,52
2016-02-18T13:03:31.218Z,56
2016-02-18T13:04:31.268Z,48
2016-02-18T13:05:31.348Z,52
2016-02-18T13:06:31.366Z,56
2016-02-18T13:07:31.415Z,56
2016-02-18T13:08:31.450Z,56
2016-02-18T13:09:31.531Z,64
2016-02-18T13:10:31.580Z,52
2016-02-18T13:11:31.599Z,56
2016-02-18T13:12:31.664Z,52
2016-02-18T13:13:31.698Z,52
2016-02-18T13:14:31.762Z,44
2016-02-18T13:15:31.828Z,44
2016-02-18T13:16:31.846Z,40
2016-02-18T13:17:31.911Z,48
2016-02-18T13:18:31.961Z,4
2016-02-18T13:19:32.011Z,4
2016-02-18T13:20:32.061Z,0
2016-02-18T13:21:32.094Z,4
2016-02-18T13:22:32.175Z,4
2016-02-18T13:23:32.286Z,4
2016-02-18T13:24:32.306Z,4
2016-02-18T13:25:32.292Z,0
2016-02-18T13:26:32.357Z,0
2016-02-18T13:27:32.391Z,4
2016-02-18T13:28:32.441Z,4
2016-02-18T13:29:32.491Z,4
2016-02-18T13:30:32.759Z,4
2016-02-18T13:31:32.683Z,0
2016-02-18T13:32:32.639Z,0
2016-02-18T13:33:32.688Z,0
2016-02-18T13:34:32.754Z,0
2016-02-18T13:35:32.788Z,4
2016-02-18T13:36:32.821Z,0
2016-02-18T13:37:32.887Z,0
2016-02-18T13:38:32.984Z,0
2016-02-18T13:39:32.971Z,4
2016-02-18T13:40:33.036Z,0
2016-02-18T13:41:33.070Z,0
2016-02-18T13:42:33.135Z,4
2016-02-18T13:43:33.200Z,4
2016-02-18T13:44:33.218Z,4
2016-02-18T13:45:33.283Z,4
2016-02-18T13:46:33.318Z,4
2016-02-18T13:47:33.367Z,4
2016-02-18T13:48:33.433Z,4
2016-02-18T13:49:33.481Z,4
2016-02-18T13:50:33.516Z,4
2016-02-18T13:51:33.597Z,4
2016-02-18T13:52:33.614Z,4
2016-02-18T13:53:33.680Z,4
2016-02-18T13:54:33.714Z,4
2016-02-18T13:55:33.764Z,0
2016-02-18T13:56:33.829Z,0
2016-02-18T13:57:33.863Z,0
2016-02-18T13:58:33.913Z,0
2016-02-18T13:59:33.962Z,0
2016-02-18T14:00:34.011Z,0
2016-02-18T14:01:34.060Z,0
2016-02-18T14:02:34.127Z,0
2016-02-18T14:03:34.160Z,4
2016-02-18T14:04:34.214Z,4
2016-02-18T14:05:34.264Z,0
2016-02-18T14:06:34.313Z,4
2016-02-18T14:07:34.378Z,4
2016-02-18T14:08:34.396Z,4
2016-02-18T14:09:34.461Z,4
2016-02-18T14:10:34.527Z,4
2016-02-18T14:11:34.544Z,4
2016-02-18T14:12:34.595Z,4
2016-02-18T14:13:34.675Z,0
2016-02-18T14:14:34.694Z,0
2016-02-18T14:15:34.743Z,0
2016-02-18T14:16:34.840Z,0
2016-02-18T14:17:34.843Z,0
2016-02-18T14:18:34.891Z,4
2016-02-18T14:19:34.988Z,4
2016-02-18T14:20:34.835Z,4
2016-02-18T14:21:35.057Z,4
2016-02-18T14:22:35.137Z,4
2016-02-18T14:23:35.140Z,4
2016-02-18T14:24:35.221Z,0
2016-02-18T14:25:35.240Z,4
2016-02-18T14:26:35.288Z,4
2016-02-18T14:27:35.370Z,4
2016-02-18T14:28:35.388Z,4
2016-02-18T14:29:35.453Z,4
2016-02-18T14:30:34.768Z,4
2016-02-18T14:31:35.552Z,4
2016-02-18T14:32:35.586Z,4
2016-02-18T14:33:35.667Z,4
2016-02-18T14:34:35.685Z,4